Terminal Aerodrome Forecast
Issued by NWS Goodland, KS

Home | Current Version | Previous Version | Text Only | Print | Product List | Glossary On
Versions: 1 2 3 4 5 6 7 8 9 10 11 12 13 14 15 16 17 18
000
FTUS43 KGLD 021139
TAFGLD
TAF
KGLD 021139Z 0212/0312 02020G30KT P6SM -TSRA SCT060CB OVC090
     FM021500 06013KT P6SM VCTS BKN100CB
     FM030000 04007KT P6SM VCTS SCT070CB BKN100
     FM030500 19005KT P6SM SCT100 BKN200
     FM030900 25005KT P6SM SCT200=

USA.gov is the U.S. government's official web portal to all federal, state and local government web resources and services.